Decoded Metar for KHRT (MARY ESTHER in FL, USA) (IATA:HRT) | Meteo·Mobile Aviation Weather
aviador You're here:

KHRT Decoded Metar

MARY ESTHER in FL, USA
Report Time2018-10-19 08:56:00
UTC Time2018-10-19 09:53:20
Flight Rules vfr VFR
Wind050° at 05 kt
W.Decomp.*RWY 36: 3.2 kt HW 3.8 kt RCW
W.Rank050° ranks 22
Current wind is below 050° avg. (5.5)
Visibility9999 m
Phenomena:N/A
Clouds:N/A
Expected CloudBase > 4,400 ft AGL from Temp-Dew spread
CeilingNone
Temp20°C (ISA +5)
Dew Point09°C (49% RH)
AAT18.0°C
QNH1022 hPa
Density Alt486 ft
Elevation39 ft
Report Wrong Elevation
Raw Report
KHRT 190856Z AUTO 05005KT 10SM CLR 20/09 A3017 RMK AO2 SLP218
T01970087 57010 $=

Extra information for KHRT:More info

Metar Taf Metar & Taf Last 4 Metars F.Rules Stats Wind Profile Meteogram Temp Stats Airport Information Weather charts Add Link Nearby VenuesMetar ALERT Operation Metar Decoded Social comments

AIRNAV info for KHRT